sensor_id;sensor_type;location;lat;lon;timestamp;P1;durP1;ratioP1;P2;durP2;ratioP2
63444;SDS011;49573;47.682;9.170;2023-09-18T00:00:22;6.28;;;3.63;;
63444;SDS011;49573;47.682;9.170;2023-09-18T00:03:10;6.57;;;3.70;;
63444;SDS011;49573;47.682;9.170;2023-09-18T00:05:56;5.97;;;3.35;;
63444;SDS011;49573;47.682;9.170;2023-09-18T00:08:42;8.07;;;3.88;;
63444;SDS011;49573;47.682;9.170;2023-09-18T00:11:28;7.60;;;3.70;;
63444;SDS011;49573;47.682;9.170;2023-09-18T00:14:14;5.70;;;3.65;;
63444;SDS011;49573;47.682;9.170;2023-09-18T00:17:00;4.78;;;3.28;;
63444;SDS011;49573;47.682;9.170;2023-09-18T00:19:48;5.15;;;3.30;;
63444;SDS011;49573;47.682;9.170;2023-09-18T00:22:34;10.73;;;4.00;;
63444;SDS011;49573;47.682;9.170;2023-09-18T00:25:20;6.00;;;3.60;;
63444;SDS011;49573;47.682;9.170;2023-09-18T00:28:06;6.85;;;3.63;;
63444;SDS011;49573;47.682;9.170;2023-09-18T00:30:52;5.30;;;3.85;;
63444;SDS011;49573;47.682;9.170;2023-09-18T00:33:39;6.80;;;3.70;;
63444;SDS011;49573;47.682;9.170;2023-09-18T00:36:26;6.15;;;3.38;;
63444;SDS011;49573;47.682;9.170;2023-09-18T00:39:12;7.32;;;4.43;;
63444;SDS011;49573;47.682;9.170;2023-09-18T00:41:59;6.93;;;3.63;;
63444;SDS011;49573;47.682;9.170;2023-09-18T00:44:45;5.05;;;3.38;;
63444;SDS011;49573;47.682;9.170;2023-09-18T00:47:31;6.00;;;3.40;;
63444;SDS011;49573;47.682;9.170;2023-09-18T00:50:18;6.55;;;3.70;;
63444;SDS011;49573;47.682;9.170;2023-09-18T00:53:06;7.18;;;3.50;;
63444;SDS011;49573;47.682;9.170;2023-09-18T00:55:54;8.30;;;4.28;;
63444;SDS011;49573;47.682;9.170;2023-09-18T00:58:41;8.35;;;3.97;;
63444;SDS011;49573;47.682;9.170;2023-09-18T01:01:29;7.30;;;3.70;;
63444;SDS011;49573;47.682;9.170;2023-09-18T01:04:17;5.93;;;3.35;;
63444;SDS011;49573;47.682;9.170;2023-09-18T01:07:03;9.43;;;3.70;;
63444;SDS011;49573;47.682;9.170;2023-09-18T01:09:51;6.93;;;3.50;;
63444;SDS011;49573;47.682;9.170;2023-09-18T01:12:39;7.15;;;3.72;;
63444;SDS011;49573;47.682;9.170;2023-09-18T01:15:32;6.25;;;3.58;;
63444;SDS011;49573;47.682;9.170;2023-09-18T01:18:21;7.78;;;3.58;;
63444;SDS011;49573;47.682;9.170;2023-09-18T01:21:07;6.38;;;3.67;;
63444;SDS011;49573;47.682;9.170;2023-09-18T01:23:54;5.50;;;3.45;;
63444;SDS011;49573;47.682;9.170;2023-09-18T01:26:40;8.02;;;3.65;;
63444;SDS011;49573;47.682;9.170;2023-09-18T01:29:26;8.85;;;3.58;;
63444;SDS011;49573;47.682;9.170;2023-09-18T01:32:13;4.93;;;3.72;;
63444;SDS011;49573;47.682;9.170;2023-09-18T01:35:00;4.93;;;3.55;;
63444;SDS011;49573;47.682;9.170;2023-09-18T01:37:47;6.43;;;3.45;;
63444;SDS011;49573;47.682;9.170;2023-09-18T01:40:36;7.15;;;3.50;;
63444;SDS011;49573;47.682;9.170;2023-09-18T01:43:23;5.47;;;3.50;;
63444;SDS011;49573;47.682;9.170;2023-09-18T01:46:09;5.47;;;3.53;;
63444;SDS011;49573;47.682;9.170;2023-09-18T01:48:55;6.22;;;3.60;;
63444;SDS011;49573;47.682;9.170;2023-09-18T01:51:41;5.63;;;3.53;;
63444;SDS011;49573;47.682;9.170;2023-09-18T01:54:27;6.95;;;3.92;;
63444;SDS011;49573;47.682;9.170;2023-09-18T01:57:15;7.00;;;3.78;;
63444;SDS011;49573;47.682;9.170;2023-09-18T02:00:01;6.97;;;3.55;;
63444;SDS011;49573;47.682;9.170;2023-09-18T02:02:49;5.35;;;3.50;;
63444;SDS011;49573;47.682;9.170;2023-09-18T02:05:35;5.43;;;3.50;;
63444;SDS011;49573;47.682;9.170;2023-09-18T02:08:22;6.47;;;3.75;;
63444;SDS011;49573;47.682;9.170;2023-09-18T02:11:08;5.45;;;3.38;;
63444;SDS011;49573;47.682;9.170;2023-09-18T02:13:55;6.72;;;3.78;;
63444;SDS011;49573;47.682;9.170;2023-09-18T02:16:42;5.20;;;3.90;;
63444;SDS011;49573;47.682;9.170;2023-09-18T02:19:28;7.53;;;3.83;;
63444;SDS011;49573;47.682;9.170;2023-09-18T02:22:14;8.73;;;4.00;;
63444;SDS011;49573;47.682;9.170;2023-09-18T02:25:00;5.65;;;3.50;;
63444;SDS011;49573;47.682;9.170;2023-09-18T02:27:47;7.40;;;3.90;;
63444;SDS011;49573;47.682;9.170;2023-09-18T02:30:36;7.65;;;3.50;;
63444;SDS011;49573;47.682;9.170;2023-09-18T02:33:22;5.97;;;3.63;;
63444;SDS011;49573;47.682;9.170;2023-09-18T02:36:08;9.43;;;4.22;;
63444;SDS011;49573;47.682;9.170;2023-09-18T02:38:54;7.57;;;4.18;;
63444;SDS011;49573;47.682;9.170;2023-09-18T02:41:41;5.60;;;3.60;;
63444;SDS011;49573;47.682;9.170;2023-09-18T02:44:27;5.90;;;3.90;;
63444;SDS011;49573;47.682;9.170;2023-09-18T02:47:14;7.00;;;4.38;;
63444;SDS011;49573;47.682;9.170;2023-09-18T02:50:00;5.57;;;4.03;;
63444;SDS011;49573;47.682;9.170;2023-09-18T02:52:46;6.65;;;4.18;;
63444;SDS011;49573;47.682;9.170;2023-09-18T02:55:32;5.97;;;3.85;;
63444;SDS011;49573;47.682;9.170;2023-09-18T02:58:19;9.02;;;3.97;;
63444;SDS011;49573;47.682;9.170;2023-09-18T03:01:06;7.13;;;3.75;;
63444;SDS011;49573;47.682;9.170;2023-09-18T03:03:54;5.35;;;3.80;;
63444;SDS011;49573;47.682;9.170;2023-09-18T03:06:40;7.60;;;4.03;;
63444;SDS011;49573;47.682;9.170;2023-09-18T03:09:26;6.60;;;3.95;;
63444;SDS011;49573;47.682;9.170;2023-09-18T03:12:12;7.33;;;4.00;;
63444;SDS011;49573;47.682;9.170;2023-09-18T03:14:58;9.13;;;4.40;;
63444;SDS011;49573;47.682;9.170;2023-09-18T03:17:44;5.95;;;3.97;;
63444;SDS011;49573;47.682;9.170;2023-09-18T03:20:32;9.00;;;4.18;;
63444;SDS011;49573;47.682;9.170;2023-09-18T03:23:18;6.88;;;4.30;;
63444;SDS011;49573;47.682;9.170;2023-09-18T03:26:04;8.05;;;4.47;;
63444;SDS011;49573;47.682;9.170;2023-09-18T03:28:50;8.52;;;4.32;;
63444;SDS011;49573;47.682;9.170;2023-09-18T03:31:37;9.77;;;4.10;;
63444;SDS011;49573;47.682;9.170;2023-09-18T03:34:23;7.87;;;4.30;;
63444;SDS011;49573;47.682;9.170;2023-09-18T03:37:12;6.85;;;4.30;;
63444;SDS011;49573;47.682;9.170;2023-09-18T03:39:59;7.85;;;4.65;;
63444;SDS011;49573;47.682;9.170;2023-09-18T03:42:45;9.48;;;4.57;;
63444;SDS011;49573;47.682;9.170;2023-09-18T03:45:31;8.45;;;4.80;;
63444;SDS011;49573;47.682;9.170;2023-09-18T03:48:17;9.32;;;4.53;;
63444;SDS011;49573;47.682;9.170;2023-09-18T03:51:03;8.68;;;4.57;;
63444;SDS011;49573;47.682;9.170;2023-09-18T03:53:52;9.85;;;5.10;;
63444;SDS011;49573;47.682;9.170;2023-09-18T03:56:38;9.50;;;4.70;;
63444;SDS011;49573;47.682;9.170;2023-09-18T03:59:24;9.90;;;4.53;;
63444;SDS011;49573;47.682;9.170;2023-09-18T04:02:10;8.27;;;4.65;;
63444;SDS011;49573;47.682;9.170;2023-09-18T04:04:56;6.93;;;4.57;;
63444;SDS011;49573;47.682;9.170;2023-09-18T04:07:42;10.45;;;4.45;;
63444;SDS011;49573;47.682;9.170;2023-09-18T04:10:32;8.27;;;4.80;;
63444;SDS011;49573;47.682;9.170;2023-09-18T04:13:19;9.13;;;4.82;;
63444;SDS011;49573;47.682;9.170;2023-09-18T04:16:05;9.32;;;4.70;;
63444;SDS011;49573;47.682;9.170;2023-09-18T04:18:51;8.82;;;4.53;;
63444;SDS011;49573;47.682;9.170;2023-09-18T04:21:37;11.85;;;5.25;;
63444;SDS011;49573;47.682;9.170;2023-09-18T04:24:23;6.75;;;4.28;;
63444;SDS011;49573;47.682;9.170;2023-09-18T04:27:10;9.00;;;4.53;;
63444;SDS011;49573;47.682;9.170;2023-09-18T04:29:56;7.28;;;4.40;;
63444;SDS011;49573;47.682;9.170;2023-09-18T04:32:43;9.32;;;4.40;;
63444;SDS011;49573;47.682;9.170;2023-09-18T04:35:29;6.90;;;4.20;;
63444;SDS011;49573;47.682;9.170;2023-09-18T04:38:17;9.00;;;4.78;;
63444;SDS011;49573;47.682;9.170;2023-09-18T04:41:04;5.88;;;4.38;;
63444;SDS011;49573;47.682;9.170;2023-09-18T04:43:53;7.68;;;4.40;;
63444;SDS011;49573;47.682;9.170;2023-09-18T04:46:40;12.98;;;4.30;;
63444;SDS011;49573;47.682;9.170;2023-09-18T04:49:27;7.78;;;4.53;;
63444;SDS011;49573;47.682;9.170;2023-09-18T04:52:13;10.30;;;4.30;;
63444;SDS011;49573;47.682;9.170;2023-09-18T04:54:59;6.60;;;4.37;;
63444;SDS011;49573;47.682;9.170;2023-09-18T04:57:45;10.82;;;5.07;;
63444;SDS011;49573;47.682;9.170;2023-09-18T05:00:33;9.93;;;4.67;;
63444;SDS011;49573;47.682;9.170;2023-09-18T05:03:19;6.97;;;4.32;;
63444;SDS011;49573;47.682;9.170;2023-09-18T05:06:05;10.07;;;4.40;;
63444;SDS011;49573;47.682;9.170;2023-09-18T05:08:51;8.52;;;4.20;;
63444;SDS011;49573;47.682;9.170;2023-09-18T05:11:38;11.23;;;4.65;;
63444;SDS011;49573;47.682;9.170;2023-09-18T05:14:27;8.80;;;4.28;;
63444;SDS011;49573;47.682;9.170;2023-09-18T05:17:15;7.65;;;4.72;;
63444;SDS011;49573;47.682;9.170;2023-09-18T05:20:02;5.78;;;3.75;;
63444;SDS011;49573;47.682;9.170;2023-09-18T05:22:50;8.85;;;4.63;;
63444;SDS011;49573;47.682;9.170;2023-09-18T05:25:39;8.75;;;4.45;;
63444;SDS011;49573;47.682;9.170;2023-09-18T05:28:27;7.28;;;4.13;;
63444;SDS011;49573;47.682;9.170;2023-09-18T05:31:13;10.13;;;4.53;;
63444;SDS011;49573;47.682;9.170;2023-09-18T05:34:02;10.70;;;4.93;;
63444;SDS011;49573;47.682;9.170;2023-09-18T05:36:48;7.63;;;4.35;;
63444;SDS011;49573;47.682;9.170;2023-09-18T05:39:34;9.80;;;4.70;;
63444;SDS011;49573;47.682;9.170;2023-09-18T05:42:20;12.17;;;4.20;;
63444;SDS011;49573;47.682;9.170;2023-09-18T05:45:07;10.98;;;4.47;;
63444;SDS011;49573;47.682;9.170;2023-09-18T05:47:53;9.27;;;3.83;;
63444;SDS011;49573;47.682;9.170;2023-09-18T05:50:48;8.05;;;3.60;;
63444;SDS011;49573;47.682;9.170;2023-09-18T05:53:34;10.75;;;3.65;;
63444;SDS011;49573;47.682;9.170;2023-09-18T05:56:20;10.77;;;3.40;;
63444;SDS011;49573;47.682;9.170;2023-09-18T05:59:06;8.30;;;3.78;;
63444;SDS011;49573;47.682;9.170;2023-09-18T06:01:52;6.63;;;3.20;;
63444;SDS011;49573;47.682;9.170;2023-09-18T06:07:27;10.50;;;3.30;;
63444;SDS011;49573;47.682;9.170;2023-09-18T06:10:13;7.95;;;3.13;;
63444;SDS011;49573;47.682;9.170;2023-09-18T06:12:59;8.13;;;3.28;;
63444;SDS011;49573;47.682;9.170;2023-09-18T06:15:49;10.93;;;3.00;;
63444;SDS011;49573;47.682;9.170;2023-09-18T06:21:23;7.25;;;3.05;;
63444;SDS011;49573;47.682;9.170;2023-09-18T06:24:11;8.95;;;3.08;;
63444;SDS011;49573;47.682;9.170;2023-09-18T06:26:57;8.38;;;2.88;;
63444;SDS011;49573;47.682;9.170;2023-09-18T06:29:43;8.82;;;3.55;;
63444;SDS011;49573;47.682;9.170;2023-09-18T06:32:29;6.93;;;2.83;;
63444;SDS011;49573;47.682;9.170;2023-09-18T06:35:15;10.02;;;3.10;;
63444;SDS011;49573;47.682;9.170;2023-09-18T06:38:02;8.18;;;3.10;;
63444;SDS011;49573;47.682;9.170;2023-09-18T06:40:51;6.22;;;3.08;;
63444;SDS011;49573;47.682;9.170;2023-09-18T06:43:38;9.73;;;2.80;;
63444;SDS011;49573;47.682;9.170;2023-09-18T06:46:24;10.68;;;3.17;;
63444;SDS011;49573;47.682;9.170;2023-09-18T06:49:10;6.60;;;3.08;;
63444;SDS011;49573;47.682;9.170;2023-09-18T06:51:56;7.68;;;3.05;;
63444;SDS011;49573;47.682;9.170;2023-09-18T06:54:43;7.43;;;3.40;;
63444;SDS011;49573;47.682;9.170;2023-09-18T06:57:31;8.75;;;2.80;;
63444;SDS011;49573;47.682;9.170;2023-09-18T07:00:17;6.68;;;2.60;;
63444;SDS011;49573;47.682;9.170;2023-09-18T07:03:06;7.45;;;2.90;;
63444;SDS011;49573;47.682;9.170;2023-09-18T07:05:52;8.85;;;2.92;;
63444;SDS011;49573;47.682;9.170;2023-09-18T07:08:38;9.23;;;2.90;;
63444;SDS011;49573;47.682;9.170;2023-09-18T07:11:24;4.60;;;2.50;;
63444;SDS011;49573;47.682;9.170;2023-09-18T07:14:12;8.68;;;2.45;;
63444;SDS011;49573;47.682;9.170;2023-09-18T07:16:58;5.07;;;2.63;;
63444;SDS011;49573;47.682;9.170;2023-09-18T07:19:46;8.30;;;2.33;;
63444;SDS011;49573;47.682;9.170;2023-09-18T07:22:32;7.43;;;2.50;;
63444;SDS011;49573;47.682;9.170;2023-09-18T07:25:18;4.75;;;2.40;;
63444;SDS011;49573;47.682;9.170;2023-09-18T07:28:05;7.32;;;2.53;;
63444;SDS011;49573;47.682;9.170;2023-09-18T07:30:53;5.57;;;2.17;;
63444;SDS011;49573;47.682;9.170;2023-09-18T07:33:39;5.90;;;2.58;;
63444;SDS011;49573;47.682;9.170;2023-09-18T07:36:25;8.27;;;2.88;;
63444;SDS011;49573;47.682;9.170;2023-09-18T07:39:11;7.65;;;2.80;;
63444;SDS011;49573;47.682;9.170;2023-09-18T07:41:57;7.82;;;2.97;;
63444;SDS011;49573;47.682;9.170;2023-09-18T07:44:43;7.07;;;2.83;;
63444;SDS011;49573;47.682;9.170;2023-09-18T07:47:31;5.90;;;2.28;;
63444;SDS011;49573;47.682;9.170;2023-09-18T07:50:17;5.22;;;2.40;;
63444;SDS011;49573;47.682;9.170;2023-09-18T07:53:03;5.38;;;2.10;;
63444;SDS011;49573;47.682;9.170;2023-09-18T07:55:55;5.53;;;2.10;;
63444;SDS011;49573;47.682;9.170;2023-09-18T07:58:41;7.15;;;2.20;;
63444;SDS011;49573;47.682;9.170;2023-09-18T08:01:28;6.90;;;2.20;;
63444;SDS011;49573;47.682;9.170;2023-09-18T08:04:15;6.93;;;2.00;;
63444;SDS011;49573;47.682;9.170;2023-09-18T08:07:01;6.03;;;2.03;;
63444;SDS011;49573;47.682;9.170;2023-09-18T08:09:47;6.43;;;2.83;;
63444;SDS011;49573;47.682;9.170;2023-09-18T08:12:34;8.73;;;2.55;;
63444;SDS011;49573;47.682;9.170;2023-09-18T08:15:20;8.07;;;2.47;;
63444;SDS011;49573;47.682;9.170;2023-09-18T08:18:07;5.75;;;1.88;;
63444;SDS011;49573;47.682;9.170;2023-09-18T08:20:54;6.70;;;2.63;;
63444;SDS011;49573;47.682;9.170;2023-09-18T08:23:42;5.72;;;1.90;;
63444;SDS011;49573;47.682;9.170;2023-09-18T08:26:29;7.95;;;2.10;;
63444;SDS011;49573;47.682;9.170;2023-09-18T08:29:15;5.68;;;2.20;;
63444;SDS011;49573;47.682;9.170;2023-09-18T08:32:01;5.05;;;2.42;;
63444;SDS011;49573;47.682;9.170;2023-09-18T08:34:47;4.50;;;1.48;;
63444;SDS011;49573;47.682;9.170;2023-09-18T08:37:35;6.87;;;1.80;;
63444;SDS011;49573;47.682;9.170;2023-09-18T08:40:22;4.75;;;2.05;;
63444;SDS011;49573;47.682;9.170;2023-09-18T08:43:08;5.63;;;2.20;;
63444;SDS011;49573;47.682;9.170;2023-09-18T08:45:56;4.38;;;2.00;;
63444;SDS011;49573;47.682;9.170;2023-09-18T08:48:48;4.93;;;1.80;;
63444;SDS011;49573;47.682;9.170;2023-09-18T08:51:37;4.78;;;2.13;;
63444;SDS011;49573;47.682;9.170;2023-09-18T08:54:25;3.80;;;1.77;;
63444;SDS011;49573;47.682;9.170;2023-09-18T08:57:13;3.92;;;1.60;;
63444;SDS011;49573;47.682;9.170;2023-09-18T08:59:59;4.38;;;1.65;;
63444;SDS011;49573;47.682;9.170;2023-09-18T09:02:52;4.00;;;1.52;;
63444;SDS011;49573;47.682;9.170;2023-09-18T09:08:25;5.15;;;1.80;;
63444;SDS011;49573;47.682;9.170;2023-09-18T09:11:13;4.53;;;1.60;;
63444;SDS011;49573;47.682;9.170;2023-09-18T09:14:08;4.65;;;1.70;;
63444;SDS011;49573;47.682;9.170;2023-09-18T09:17:02;3.17;;;1.67;;
63444;SDS011;49573;47.682;9.170;2023-09-18T09:19:49;5.05;;;1.85;;
63444;SDS011;49573;47.682;9.170;2023-09-18T09:22:35;3.83;;;1.80;;
63444;SDS011;49573;47.682;9.170;2023-09-18T09:25:22;4.82;;;1.98;;
63444;SDS011;49573;47.682;9.170;2023-09-18T09:28:12;4.18;;;1.70;;
63444;SDS011;49573;47.682;9.170;2023-09-18T09:31:01;4.55;;;1.63;;
63444;SDS011;49573;47.682;9.170;2023-09-18T09:33:49;3.08;;;1.40;;
63444;SDS011;49573;47.682;9.170;2023-09-18T09:36:51;4.80;;;1.70;;
63444;SDS011;49573;47.682;9.170;2023-09-18T09:39:47;7.15;;;2.00;;
63444;SDS011;49573;47.682;9.170;2023-09-18T09:42:38;6.80;;;1.65;;
63444;SDS011;49573;47.682;9.170;2023-09-18T09:45:27;6.13;;;1.90;;
63444;SDS011;49573;47.682;9.170;2023-09-18T09:48:15;8.30;;;2.33;;
63444;SDS011;49573;47.682;9.170;2023-09-18T09:51:01;5.75;;;1.80;;
63444;SDS011;49573;47.682;9.170;2023-09-18T09:53:47;3.85;;;2.10;;
63444;SDS011;49573;47.682;9.170;2023-09-18T09:56:43;6.28;;;2.38;;
63444;SDS011;49573;47.682;9.170;2023-09-18T09:59:30;5.90;;;2.67;;
63444;SDS011;49573;47.682;9.170;2023-09-18T10:02:20;8.63;;;2.53;;
63444;SDS011;49573;47.682;9.170;2023-09-18T10:05:08;4.97;;;2.25;;
63444;SDS011;49573;47.682;9.170;2023-09-18T10:07:54;8.48;;;3.25;;
63444;SDS011;49573;47.682;9.170;2023-09-18T10:10:47;6.80;;;2.60;;
63444;SDS011;49573;47.682;9.170;2023-09-18T10:13:36;4.60;;;2.17;;
63444;SDS011;49573;47.682;9.170;2023-09-18T10:16:26;6.60;;;2.30;;
63444;SDS011;49573;47.682;9.170;2023-09-18T10:19:21;6.20;;;2.05;;
63444;SDS011;49573;47.682;9.170;2023-09-18T10:25:10;5.85;;;2.30;;
63444;SDS011;49573;47.682;9.170;2023-09-18T10:28:03;5.50;;;2.33;;
63444;SDS011;49573;47.682;9.170;2023-09-18T10:30:53;5.63;;;2.10;;
63444;SDS011;49573;47.682;9.170;2023-09-18T10:33:42;4.20;;;2.22;;
63444;SDS011;49573;47.682;9.170;2023-09-18T10:36:31;7.05;;;2.55;;
63444;SDS011;49573;47.682;9.170;2023-09-18T10:39:19;6.22;;;2.47;;
63444;SDS011;49573;47.682;9.170;2023-09-18T10:42:09;4.38;;;2.20;;
63444;SDS011;49573;47.682;9.170;2023-09-18T10:44:55;5.20;;;2.30;;
63444;SDS011;49573;47.682;9.170;2023-09-18T10:47:42;6.45;;;2.35;;
63444;SDS011;49573;47.682;9.170;2023-09-18T10:50:32;5.78;;;2.33;;
63444;SDS011;49573;47.682;9.170;2023-09-18T10:53:19;5.07;;;2.60;;
63444;SDS011;49573;47.682;9.170;2023-09-18T10:56:07;5.97;;;2.10;;
63444;SDS011;49573;47.682;9.170;2023-09-18T10:58:56;4.20;;;2.42;;
63444;SDS011;49573;47.682;9.170;2023-09-18T11:01:44;2.90;;;2.17;;
63444;SDS011;49573;47.682;9.170;2023-09-18T11:04:32;4.70;;;2.05;;
63444;SDS011;49573;47.682;9.170;2023-09-18T11:13:12;5.60;;;2.10;;
63444;SDS011;49573;47.682;9.170;2023-09-18T11:16:18;3.65;;;2.00;;
63444;SDS011;49573;47.682;9.170;2023-09-18T11:19:18;3.63;;;2.17;;
63444;SDS011;49573;47.682;9.170;2023-09-18T11:24:52;5.28;;;1.95;;
63444;SDS011;49573;47.682;9.170;2023-09-18T11:27:44;4.57;;;2.20;;
63444;SDS011;49573;47.682;9.170;2023-09-18T11:30:48;4.05;;;1.63;;
63444;SDS011;49573;47.682;9.170;2023-09-18T11:33:35;2.80;;;1.60;;
63444;SDS011;49573;47.682;9.170;2023-09-18T11:36:28;3.42;;;1.77;;
63444;SDS011;49573;47.682;9.170;2023-09-18T11:39:33;7.68;;;2.13;;
63444;SDS011;49573;47.682;9.170;2023-09-18T11:42:21;5.22;;;2.10;;
63444;SDS011;49573;47.682;9.170;2023-09-18T11:45:09;5.45;;;2.17;;
63444;SDS011;49573;47.682;9.170;2023-09-18T11:48:02;3.72;;;1.90;;
63444;SDS011;49573;47.682;9.170;2023-09-18T11:50:51;2.63;;;1.92;;
63444;SDS011;49573;47.682;9.170;2023-09-18T11:53:39;3.33;;;1.77;;
63444;SDS011;49573;47.682;9.170;2023-09-18T11:56:29;11.85;;;2.40;;
63444;SDS011;49573;47.682;9.170;2023-09-18T11:59:15;7.40;;;2.50;;
63444;SDS011;49573;47.682;9.170;2023-09-18T12:02:04;6.53;;;2.05;;
63444;SDS011;49573;47.682;9.170;2023-09-18T12:04:51;4.30;;;2.00;;
63444;SDS011;49573;47.682;9.170;2023-09-18T12:07:37;4.05;;;1.70;;
63444;SDS011;49573;47.682;9.170;2023-09-18T12:10:24;3.53;;;1.83;;
63444;SDS011;49573;47.682;9.170;2023-09-18T12:13:12;2.85;;;1.73;;
63444;SDS011;49573;47.682;9.170;2023-09-18T12:15:58;3.80;;;1.67;;
63444;SDS011;49573;47.682;9.170;2023-09-18T12:18:47;3.88;;;2.03;;
63444;SDS011;49573;47.682;9.170;2023-09-18T12:21:39;3.38;;;2.10;;
63444;SDS011;49573;47.682;9.170;2023-09-18T12:24:26;3.80;;;1.90;;
63444;SDS011;49573;47.682;9.170;2023-09-18T12:27:12;5.40;;;2.22;;
63444;SDS011;49573;47.682;9.170;2023-09-18T12:29:59;3.75;;;2.00;;
63444;SDS011;49573;47.682;9.170;2023-09-18T12:32:46;5.20;;;2.00;;
63444;SDS011;49573;47.682;9.170;2023-09-18T12:35:36;5.85;;;2.00;;
63444;SDS011;49573;47.682;9.170;2023-09-18T12:38:25;2.92;;;1.67;;
63444;SDS011;49573;47.682;9.170;2023-09-18T12:41:12;5.63;;;1.88;;
63444;SDS011;49573;47.682;9.170;2023-09-18T12:43:59;2.67;;;1.60;;
63444;SDS011;49573;47.682;9.170;2023-09-18T12:46:45;3.08;;;1.63;;
63444;SDS011;49573;47.682;9.170;2023-09-18T12:49:34;5.55;;;1.70;;
63444;SDS011;49573;47.682;9.170;2023-09-18T12:52:22;5.72;;;2.25;;
63444;SDS011;49573;47.682;9.170;2023-09-18T12:55:09;2.45;;;1.70;;
63444;SDS011;49573;47.682;9.170;2023-09-18T12:58:08;4.78;;;1.75;;
63444;SDS011;49573;47.682;9.170;2023-09-18T13:00:56;3.83;;;1.85;;
63444;SDS011;49573;47.682;9.170;2023-09-18T13:03:42;4.20;;;1.80;;
63444;SDS011;49573;47.682;9.170;2023-09-18T13:06:29;5.22;;;1.88;;
63444;SDS011;49573;47.682;9.170;2023-09-18T13:09:17;6.57;;;2.00;;
63444;SDS011;49573;47.682;9.170;2023-09-18T13:12:05;3.58;;;1.67;;
63444;SDS011;49573;47.682;9.170;2023-09-18T13:14:58;3.10;;;1.77;;
63444;SDS011;49573;47.682;9.170;2023-09-18T13:18:08;2.80;;;1.52;;
63444;SDS011;49573;47.682;9.170;2023-09-18T13:20:55;3.70;;;1.60;;
63444;SDS011;49573;47.682;9.170;2023-09-18T13:23:42;4.07;;;1.80;;
63444;SDS011;49573;47.682;9.170;2023-09-18T13:26:30;4.90;;;1.58;;
63444;SDS011;49573;47.682;9.170;2023-09-18T13:29:16;4.32;;;1.60;;
63444;SDS011;49573;47.682;9.170;2023-09-18T13:32:02;4.57;;;1.90;;
63444;SDS011;49573;47.682;9.170;2023-09-18T13:34:49;4.25;;;1.90;;
63444;SDS011;49573;47.682;9.170;2023-09-18T13:37:35;3.20;;;1.80;;
63444;SDS011;49573;47.682;9.170;2023-09-18T13:40:21;4.80;;;1.88;;
63444;SDS011;49573;47.682;9.170;2023-09-18T13:43:09;3.75;;;1.70;;
63444;SDS011;49573;47.682;9.170;2023-09-18T13:45:56;4.03;;;1.90;;
63444;SDS011;49573;47.682;9.170;2023-09-18T13:48:44;3.90;;;1.95;;
63444;SDS011;49573;47.682;9.170;2023-09-18T13:51:30;4.53;;;1.67;;
63444;SDS011;49573;47.682;9.170;2023-09-18T13:57:04;3.28;;;1.90;;
63444;SDS011;49573;47.682;9.170;2023-09-18T13:59:52;2.45;;;1.65;;
63444;SDS011;49573;47.682;9.170;2023-09-18T14:02:38;5.10;;;1.83;;
63444;SDS011;49573;47.682;9.170;2023-09-18T14:05:25;3.17;;;1.88;;
63444;SDS011;49573;47.682;9.170;2023-09-18T14:08:12;3.45;;;1.88;;
63444;SDS011;49573;47.682;9.170;2023-09-18T14:10:58;2.78;;;1.98;;
63444;SDS011;49573;47.682;9.170;2023-09-18T14:13:44;4.35;;;2.10;;
63444;SDS011;49573;47.682;9.170;2023-09-18T14:16:32;5.25;;;2.10;;
63444;SDS011;49573;47.682;9.170;2023-09-18T14:19:19;3.13;;;1.83;;
63444;SDS011;49573;47.682;9.170;2023-09-18T14:22:05;4.65;;;2.20;;
63444;SDS011;49573;47.682;9.170;2023-09-18T14:24:52;4.20;;;2.53;;
63444;SDS011;49573;47.682;9.170;2023-09-18T14:27:38;2.53;;;2.20;;
63444;SDS011;49573;47.682;9.170;2023-09-18T14:33:16;2.47;;;1.75;;
63444;SDS011;49573;47.682;9.170;2023-09-18T14:36:03;5.53;;;2.00;;
63444;SDS011;49573;47.682;9.170;2023-09-18T14:38:49;2.17;;;1.73;;
63444;SDS011;49573;47.682;9.170;2023-09-18T14:41:35;2.53;;;1.80;;
63444;SDS011;49573;47.682;9.170;2023-09-18T14:44:21;2.22;;;1.55;;
63444;SDS011;49573;47.682;9.170;2023-09-18T14:47:07;4.30;;;1.80;;
63444;SDS011;49573;47.682;9.170;2023-09-18T14:49:55;2.20;;;1.60;;
63444;SDS011;49573;47.682;9.170;2023-09-18T14:52:43;3.65;;;1.80;;
63444;SDS011;49573;47.682;9.170;2023-09-18T14:55:29;2.50;;;1.70;;
63444;SDS011;49573;47.682;9.170;2023-09-18T14:58:16;2.80;;;1.77;;
63444;SDS011;49573;47.682;9.170;2023-09-18T15:01:03;2.60;;;1.63;;
63444;SDS011;49573;47.682;9.170;2023-09-18T15:03:49;5.18;;;1.95;;
63444;SDS011;49573;47.682;9.170;2023-09-18T15:09:23;2.67;;;1.88;;
63444;SDS011;49573;47.682;9.170;2023-09-18T15:12:09;4.28;;;1.80;;
63444;SDS011;49573;47.682;9.170;2023-09-18T15:14:56;2.58;;;1.73;;
63444;SDS011;49573;47.682;9.170;2023-09-18T15:17:42;2.60;;;1.70;;
63444;SDS011;49573;47.682;9.170;2023-09-18T15:20:29;2.95;;;1.50;;
63444;SDS011;49573;47.682;9.170;2023-09-18T15:23:16;5.88;;;2.00;;
63444;SDS011;49573;47.682;9.170;2023-09-18T15:26:02;2.40;;;1.92;;
63444;SDS011;49573;47.682;9.170;2023-09-18T15:28:48;1.80;;;1.70;;
63444;SDS011;49573;47.682;9.170;2023-09-18T15:31:34;2.72;;;1.80;;
63444;SDS011;49573;47.682;9.170;2023-09-18T15:34:20;3.60;;;1.63;;
63444;SDS011;49573;47.682;9.170;2023-09-18T15:37:06;2.63;;;1.77;;
63444;SDS011;49573;47.682;9.170;2023-09-18T15:39:54;2.15;;;1.52;;
63444;SDS011;49573;47.682;9.170;2023-09-18T15:42:40;3.30;;;1.58;;
63444;SDS011;49573;47.682;9.170;2023-09-18T15:45:26;1.70;;;1.40;;
63444;SDS011;49573;47.682;9.170;2023-09-18T15:48:12;2.78;;;1.50;;
63444;SDS011;49573;47.682;9.170;2023-09-18T15:50:59;3.08;;;1.60;;
63444;SDS011;49573;47.682;9.170;2023-09-18T15:53:45;3.50;;;1.80;;
63444;SDS011;49573;47.682;9.170;2023-09-18T15:56:32;2.72;;;1.88;;
63444;SDS011;49573;47.682;9.170;2023-09-18T15:59:22;3.00;;;1.83;;
63444;SDS011;49573;47.682;9.170;2023-09-18T16:02:08;3.10;;;1.85;;
63444;SDS011;49573;47.682;9.170;2023-09-18T16:04:54;2.05;;;1.58;;
63444;SDS011;49573;47.682;9.170;2023-09-18T16:07:40;4.50;;;1.80;;
63444;SDS011;49573;47.682;9.170;2023-09-18T16:10:27;2.60;;;2.00;;
63444;SDS011;49573;47.682;9.170;2023-09-18T16:13:15;4.20;;;1.73;;
63444;SDS011;49573;47.682;9.170;2023-09-18T16:16:02;5.80;;;2.03;;
63444;SDS011;49573;47.682;9.170;2023-09-18T16:18:48;4.57;;;2.20;;
63444;SDS011;49573;47.682;9.170;2023-09-18T16:21:35;5.28;;;2.25;;
63444;SDS011;49573;47.682;9.170;2023-09-18T16:24:21;6.13;;;2.50;;
63444;SDS011;49573;47.682;9.170;2023-09-18T16:27:07;3.75;;;1.92;;
63444;SDS011;49573;47.682;9.170;2023-09-18T16:29:55;4.18;;;1.80;;
63444;SDS011;49573;47.682;9.170;2023-09-18T16:32:41;6.22;;;2.55;;
63444;SDS011;49573;47.682;9.170;2023-09-18T16:35:27;5.28;;;2.08;;
63444;SDS011;49573;47.682;9.170;2023-09-18T16:38:13;2.80;;;1.92;;
63444;SDS011;49573;47.682;9.170;2023-09-18T16:40:59;2.67;;;2.00;;
63444;SDS011;49573;47.682;9.170;2023-09-18T16:43:45;2.90;;;2.00;;
63444;SDS011;49573;47.682;9.170;2023-09-18T16:46:33;4.07;;;2.00;;
63444;SDS011;49573;47.682;9.170;2023-09-18T16:49:21;2.95;;;1.88;;
63444;SDS011;49573;47.682;9.170;2023-09-18T16:52:07;2.60;;;1.70;;
63444;SDS011;49573;47.682;9.170;2023-09-18T16:54:55;2.63;;;1.58;;
63444;SDS011;49573;47.682;9.170;2023-09-18T16:57:41;4.63;;;1.88;;
63444;SDS011;49573;47.682;9.170;2023-09-18T17:00:27;3.38;;;1.92;;
63444;SDS011;49573;47.682;9.170;2023-09-18T17:03:15;8.25;;;2.40;;
63444;SDS011;49573;47.682;9.170;2023-09-18T17:06:01;5.35;;;2.03;;
63444;SDS011;49573;47.682;9.170;2023-09-18T17:09:05;2.85;;;1.90;;
63444;SDS011;49573;47.682;9.170;2023-09-18T17:11:52;3.40;;;1.77;;
63444;SDS011;49573;47.682;9.170;2023-09-18T17:14:38;5.30;;;2.20;;
63444;SDS011;49573;47.682;9.170;2023-09-18T17:17:25;5.45;;;2.05;;